Time;durP1;ratioP1;P1;durP2;ratioP2;P2;SDS_P1;SDS_P2;PMS_P1;PMS_P2;Temp;Humidity;BMP_temperature;BMP_pressure;BME280_temperature;BME280_humidity;BME280_pressure;Samples;Min_cycle;Max_cycle;Signal;HPM_P1;HPM_P2
2022/07/07 00:01:35;;;;;;;0.25;0.25;;;19.40;71.00;;;;;;5012735;28;20022;-73
2022/07/07 00:04:02;;;;;;;0.20;0.20;;;19.20;71.00;;;;;;5012734;28;20026;-73
2022/07/07 00:06:28;;;;;;;0.10;0.10;;;18.90;72.30;;;;;;5012648;28;20026;-73
2022/07/07 00:08:54;;;;;;;5.30;4.97;;;18.60;73.70;;;;;;4995013;28;20026;-73
2022/07/07 00:11:24;;;;;;;0.10;0.10;;;18.60;74.00;;;;;;5011356;28;20026;-73
2022/07/07 00:13:51;;;;;;;0.47;0.45;;;18.60;74.10;;;;;;5011540;28;20120;-73
2022/07/07 00:16:17;;;;;;;0.10;0.10;;;18.60;73.90;;;;;;5012561;28;20022;-73
2022/07/07 00:18:43;;;;;;;0.22;0.22;;;18.60;74.50;;;;;;5012543;28;20462;-73
2022/07/07 00:21:09;;;;;;;0.10;0.10;;;18.60;74.70;;;;;;5012436;28;20026;-73
2022/07/07 00:23:35;;;;;;;0.10;0.10;;;18.60;74.80;;;;;;5012526;28;20087;-73
2022/07/07 00:26:01;;;;;;;0.10;0.10;;;18.50;75.80;;;;;;5012414;28;20026;-73
2022/07/07 00:28:27;;;;;;;0.10;0.10;;;18.50;76.00;;;;;;4994683;28;20132;-73
2022/07/07 00:30:52;;;;;;;4.35;1.45;;;18.30;77.00;;;;;;5011030;28;20029;-73
2022/07/07 00:33:18;;;;;;;0.17;0.17;;;18.40;77.50;;;;;;5012293;28;20030;-73
2022/07/07 00:35:44;;;;;;;0.25;0.20;;;18.50;76.80;;;;;;5012607;28;20041;-73
2022/07/07 00:38:10;;;;;;;0.10;0.10;;;18.30;76.80;;;;;;5012338;28;20026;-73
2022/07/07 00:40:36;;;;;;;0.10;0.10;;;18.20;77.50;;;;;;5012172;28;20033;-73
2022/07/07 00:43:02;;;;;;;0.10;0.10;;;18.30;77.50;;;;;;5012234;28;20153;-73
2022/07/07 00:45:28;;;;;;;0.10;0.10;;;18.30;77.20;;;;;;5012156;28;20112;-73
2022/07/07 00:47:53;;;;;;;0.10;0.10;;;18.20;76.50;;;;;;5011101;28;20497;-73
2022/07/07 00:50:20;;;;;;;0.30;0.30;;;18.30;76.40;;;;;;5012082;28;20034;-73
2022/07/07 00:52:46;;;;;;;0.10;0.10;;;18.40;76.50;;;;;;5015090;28;20073;-73
2022/07/07 00:55:13;;;;;;;0.28;0.28;;;18.30;76.40;;;;;;5014973;28;20382;-73
2022/07/07 00:57:38;;;;;;;0.88;0.38;;;18.40;76.50;;;;;;5014886;28;20516;-73
2022/07/07 01:00:10;;;;;;;0.10;0.10;;;18.10;76.60;;;;;;5016123;28;20030;-73
2022/07/07 01:02:36;;;;;;;0.20;0.20;;;18.10;77.00;;;;;;5014832;28;20402;-73
2022/07/07 01:05:05;;;;;;;0.10;0.10;;;18.10;76.50;;;;;;5015928;28;20029;-73
2022/07/07 01:07:31;;;;;;;0.08;0.08;;;18.10;75.70;;;;;;5015896;28;20084;-73
2022/07/07 01:09:58;;;;;;;0.10;0.10;;;18.10;75.50;;;;;;5014435;28;20485;-73
2022/07/07 01:12:24;;;;;;;0.57;0.57;;;18.30;75.50;;;;;;5015733;28;20018;-73
2022/07/07 01:14:51;;;;;;;0.93;0.75;;;18.20;74.80;;;;;;5014451;28;20030;-73
2022/07/07 01:17:17;;;;;;;0.00;0.00;;;18.20;75.00;;;;;;5014498;28;20033;-73
2022/07/07 01:19:43;;;;;;;0.08;0.08;;;18.10;75.50;;;;;;5014204;28;20018;-73
2022/07/07 01:22:13;;;;;;;0.10;0.10;;;18.10;75.50;;;;;;5015660;28;20026;-73
2022/07/07 01:24:39;;;;;;;0.10;0.10;;;18.20;75.20;;;;;;5015606;28;20022;-73
2022/07/07 01:27:09;;;;;;;0.10;0.10;;;18.10;74.90;;;;;;5014281;28;20018;-73
2022/07/07 01:29:36;;;;;;;0.10;0.10;;;18.00;74.70;;;;;;5014089;28;20397;-73
2022/07/07 01:32:04;;;;;;;0.30;0.30;;;17.90;74.40;;;;;;5015369;28;20022;-73
2022/07/07 01:34:30;;;;;;;0.00;0.00;;;17.80;74.80;;;;;;5015389;28;20032;-73
2022/07/07 01:36:56;;;;;;;1.02;1.02;;;17.90;74.70;;;;;;5015398;28;20025;-73
2022/07/07 01:39:22;;;;;;;0.10;0.10;;;17.90;74.30;;;;;;5014014;28;20472;-73
2022/07/07 01:41:48;;;;;;;0.28;0.28;;;17.90;74.90;;;;;;5015398;28;20559;-73
2022/07/07 01:44:13;;;;;;;0.17;0.17;;;17.80;76.30;;;;;;5015277;28;20049;-73
2022/07/07 01:46:39;;;;;;;0.17;0.17;;;17.70;78.10;;;;;;5015166;28;20065;-73
2022/07/07 01:49:05;;;;;;;0.05;0.05;;;17.60;79.80;;;;;;5015073;28;20036;-73
2022/07/07 01:51:31;;;;;;;0.10;0.10;;;17.50;81.20;;;;;;5015155;28;20170;-73
2022/07/07 01:53:56;;;;;;;0.20;0.20;;;17.50;82.60;;;;;;5015061;28;20473;-73
2022/07/07 01:56:22;;;;;;;0.10;0.10;;;17.50;83.10;;;;;;5015030;28;20361;-73
2022/07/07 01:58:48;;;;;;;0.10;0.10;;;17.40;84.00;;;;;;5014940;28;20026;-73
2022/07/07 02:01:14;;;;;;;0.10;0.10;;;17.40;83.90;;;;;;5013674;28;20072;-73
2022/07/07 02:03:39;;;;;;;0.68;0.68;;;17.30;83.30;;;;;;5012297;28;20548;-73
2022/07/07 02:06:05;;;;;;;0.10;0.10;;;17.30;82.90;;;;;;5014814;28;20533;-73
2022/07/07 02:08:31;;;;;;;0.45;0.45;;;17.40;83.80;;;;;;5013612;28;20043;-73
2022/07/07 02:11:15;;;;;;;0.20;0.20;;;17.40;82.50;;;;;;5013550;28;20022;-73
2022/07/07 02:13:42;;;;;;;0.20;0.20;;;17.50;82.80;;;;;;5014674;28;20036;-73
2022/07/07 02:16:08;;;;;;;0.10;0.10;;;17.60;83.10;;;;;;5014692;28;20030;-73
2022/07/07 02:18:36;;;;;;;0.10;0.10;;;17.60;81.20;;;;;;5014851;28;20050;-73
2022/07/07 02:21:04;;;;;;;0.10;0.10;;;17.60;81.30;;;;;;5013163;28;20021;-73
2022/07/07 02:23:31;;;;;;;0.08;0.08;;;17.60;80.50;;;;;;5013227;28;20064;-73
2022/07/07 02:25:57;;;;;;;0.20;0.20;;;17.70;79.20;;;;;;5014516;28;20442;-73
2022/07/07 02:28:23;;;;;;;0.10;0.10;;;17.70;79.50;;;;;;5014478;28;20108;-73
2022/07/07 02:30:53;;;;;;;0.10;0.10;;;17.60;79.80;;;;;;5012975;28;20485;-73
2022/07/07 02:33:20;;;;;;;0.10;0.10;;;17.60;78.70;;;;;;5013014;28;20033;-73
2022/07/07 02:35:50;;;;;;;0.77;0.15;;;17.80;78.40;;;;;;5013007;28;20018;-73
2022/07/07 02:38:16;;;;;;;0.20;0.20;;;17.80;77.20;;;;;;5014227;28;20105;-73
2022/07/07 02:40:42;;;;;;;0.20;0.20;;;17.50;78.00;;;;;;5014096;28;20171;-73
2022/07/07 02:43:12;;;;;;;0.10;0.10;;;17.40;82.90;;;;;;5014217;28;20036;-73
2022/07/07 02:45:43;;;;;;;0.10;0.10;;;17.30;85.00;;;;;;5014045;28;20508;-73
2022/07/07 02:48:10;;;;;;;0.10;0.10;;;17.20;86.90;;;;;;5014032;28;20033;-73
2022/07/07 02:50:37;;;;;;;0.10;0.10;;;17.20;86.70;;;;;;5013913;28;20029;-73
2022/07/07 02:53:04;;;;;;;0.00;0.00;;;17.30;85.60;;;;;;4996353;28;20104;-73
2022/07/07 02:55:30;;;;;;;0.00;0.00;;;17.30;84.90;;;;;;5013876;28;20049;-73
2022/07/07 02:57:57;;;;;;;0.05;0.05;;;17.40;81.10;;;;;;5013917;28;20033;-73
2022/07/07 03:00:23;;;;;;;0.10;0.10;;;17.50;80.10;;;;;;5013618;28;20382;-73
2022/07/07 03:02:49;;;;;;;0.47;0.40;;;17.60;79.10;;;;;;5013733;28;20080;-73
2022/07/07 03:05:15;;;;;;;0.10;0.10;;;17.70;78.70;;;;;;4996133;28;20026;-73
2022/07/07 03:07:40;;;;;;;0.57;0.57;;;17.60;78.50;;;;;;5013585;28;20068;-73
2022/07/07 03:10:07;;;;;;;0.30;0.30;;;17.30;78.50;;;;;;5013486;28;20022;-73
2022/07/07 03:12:33;;;;;;;0.00;0.00;;;17.30;82.00;;;;;;5013495;28;20030;-73
2022/07/07 03:14:59;;;;;;;0.10;0.10;;;17.40;79.80;;;;;;5013114;28;20532;-74
2022/07/07 03:17:25;;;;;;;0.32;0.32;;;17.40;79.00;;;;;;5012206;28;20025;-73
2022/07/07 03:19:51;;;;;;;0.10;0.10;;;17.50;78.40;;;;;;5012082;28;20045;-73
2022/07/07 03:22:16;;;;;;;0.10;0.10;;;17.60;78.50;;;;;;5013492;28;20237;-73
2022/07/07 03:24:42;;;;;;;0.10;0.10;;;17.50;78.40;;;;;;4995753;28;20022;-73
2022/07/07 03:27:08;;;;;;;0.10;0.10;;;17.70;78.50;;;;;;5012034;28;20048;-73
2022/07/07 03:29:34;;;;;;;0.10;0.10;;;17.90;77.30;;;;;;5013242;28;20580;-73
2022/07/07 03:31:59;;;;;;;0.10;0.10;;;18.00;78.00;;;;;;5013259;28;20033;-73
2022/07/07 03:34:25;;;;;;;0.05;0.05;;;18.10;76.80;;;;;;5013249;28;20040;-73
2022/07/07 03:36:51;;;;;;;0.10;0.10;;;17.90;77.00;;;;;;5011868;28;20033;-73
2022/07/07 03:39:17;;;;;;;0.32;0.32;;;17.80;77.00;;;;;;5011880;28;20033;-73
2022/07/07 03:41:42;;;;;;;0.10;0.10;;;17.70;77.60;;;;;;5013088;28;20029;-73
2022/07/07 03:44:08;;;;;;;0.10;0.10;;;17.50;78.20;;;;;;5013419;28;20022;-73
2022/07/07 03:46:34;;;;;;;0.10;0.10;;;17.60;78.20;;;;;;5011850;28;20076;-73
2022/07/07 03:49:00;;;;;;;0.10;0.10;;;17.60;78.40;;;;;;5013310;28;20125;-73
2022/07/07 03:51:25;;;;;;;0.10;0.10;;;17.50;78.20;;;;;;5011682;28;20404;-73
2022/07/07 03:53:51;;;;;;;0.10;0.10;;;17.50;78.40;;;;;;5012806;28;20104;-73
2022/07/07 03:56:17;;;;;;;0.10;0.10;;;17.60;78.20;;;;;;5012907;28;20018;-73
2022/07/07 03:58:43;;;;;;;0.15;0.15;;;17.60;77.70;;;;;;4995108;28;20458;-73
2022/07/07 04:01:08;;;;;;;1.75;0.63;;;17.50;78.00;;;;;;4994988;28;20026;-73
2022/07/07 04:03:34;;;;;;;0.10;0.10;;;17.50;78.60;;;;;;5011505;28;20393;-73
2022/07/07 04:06:00;;;;;;;0.10;0.10;;;17.50;78.80;;;;;;5011398;28;20076;-73
2022/07/07 04:08:26;;;;;;;0.10;0.10;;;17.70;78.30;;;;;;5012721;28;20109;-73
2022/07/07 04:10:52;;;;;;;0.20;0.20;;;17.60;78.20;;;;;;5012558;28;20033;-73
2022/07/07 04:13:17;;;;;;;0.15;0.15;;;17.50;79.00;;;;;;5012494;28;20033;-73
2022/07/07 04:15:43;;;;;;;0.10;0.10;;;17.60;78.50;;;;;;5012625;28;20029;-73
2022/07/07 04:18:09;;;;;;;0.10;0.10;;;17.70;78.60;;;;;;5012905;28;20022;-73
2022/07/07 04:20:35;;;;;;;0.10;0.10;;;17.60;78.30;;;;;;5011257;28;20026;-73
2022/07/07 04:23:00;;;;;;;0.38;0.38;;;17.60;78.50;;;;;;5011248;28;20029;-73
2022/07/07 04:25:26;;;;;;;0.30;0.30;;;17.50;78.40;;;;;;5010914;28;20065;-73
2022/07/07 04:27:52;;;;;;;0.20;0.20;;;17.30;79.00;;;;;;5011929;28;20026;-73
2022/07/07 04:30:17;;;;;;;0.10;0.10;;;17.40;79.20;;;;;;5011049;28;20029;-73
2022/07/07 04:32:43;;;;;;;0.30;0.30;;;17.40;78.70;;;;;;5010948;28;20057;-73
2022/07/07 04:35:09;;;;;;;0.20;0.20;;;17.40;78.90;;;;;;5012298;28;20030;-73
2022/07/07 04:37:36;;;;;;;0.10;0.10;;;17.20;79.10;;;;;;5012314;28;20050;-73
2022/07/07 04:40:03;;;;;;;3.03;1.05;;;17.10;79.60;;;;;;5010974;28;20026;-73
2022/07/07 04:42:29;;;;;;;0.00;0.00;;;17.10;79.10;;;;;;5012323;28;20026;-73
2022/07/07 04:44:56;;;;;;;0.22;0.22;;;17.10;79.50;;;;;;4994473;28;20030;-73
2022/07/07 04:47:22;;;;;;;0.10;0.10;;;16.90;79.40;;;;;;5012087;28;20117;-73
2022/07/07 04:49:51;;;;;;;0.45;0.45;;;17.00;79.60;;;;;;5011074;28;20118;-73
2022/07/07 04:52:17;;;;;;;0.20;0.20;;;17.00;79.70;;;;;;5012150;28;20034;-73
2022/07/07 04:54:42;;;;;;;0.10;0.10;;;17.10;79.30;;;;;;5012176;28;20025;-73
2022/07/07 04:57:08;;;;;;;0.10;0.10;;;17.30;78.60;;;;;;5012094;28;20140;-73
2022/07/07 04:59:34;;;;;;;0.10;0.10;;;17.20;78.60;;;;;;5011950;28;20022;-73
2022/07/07 05:02:00;;;;;;;0.13;0.13;;;17.40;78.40;;;;;;5011901;28;20075;-73
2022/07/07 05:04:26;;;;;;;0.10;0.10;;;17.40;77.50;;;;;;5011972;28;20029;-73
2022/07/07 05:06:51;;;;;;;0.10;0.10;;;17.50;77.90;;;;;;5012004;28;20105;-73
2022/07/07 05:09:17;;;;;;;0.10;0.10;;;17.40;78.10;;;;;;5012026;28;20218;-73
2022/07/07 05:11:43;;;;;;;0.10;0.10;;;17.30;78.50;;;;;;5010729;28;20394;-73
2022/07/07 05:14:09;;;;;;;0.10;0.10;;;17.40;78.70;;;;;;5010471;28;20033;-73
2022/07/07 05:16:34;;;;;;;0.10;0.10;;;17.40;79.30;;;;;;5012010;28;20425;-73
2022/07/07 05:19:00;;;;;;;1.60;0.73;;;17.50;78.80;;;;;;5010497;28;20064;-73
2022/07/07 05:21:26;;;;;;;0.10;0.10;;;17.40;79.90;;;;;;5011988;28;20030;-73
2022/07/07 05:23:51;;;;;;;0.10;0.10;;;17.50;80.00;;;;;;5011915;28;20085;-73
2022/07/07 05:26:17;;;;;;;0.10;0.10;;;17.50;81.00;;;;;;5011836;28;20026;-73
2022/07/07 05:28:43;;;;;;;0.95;0.85;;;17.40;81.50;;;;;;5011775;28;20064;-73
2022/07/07 05:31:12;;;;;;;5.57;0.63;;;17.40;82.00;;;;;;5011839;28;20032;-73
2022/07/07 05:33:39;;;;;;;0.10;0.10;;;17.40;82.50;;;;;;5024036;28;20033;-73
2022/07/07 05:36:06;;;;;;;0.10;0.10;;;17.30;82.40;;;;;;5030028;28;20022;-73
2022/07/07 05:38:32;;;;;;;0.20;0.20;;;17.30;83.10;;;;;;5018826;28;20495;-74
2022/07/07 05:40:58;;;;;;;0.10;0.10;;;17.30;83.00;;;;;;5034853;28;20436;-74
2022/07/07 05:43:24;;;;;;;0.10;0.10;;;17.20;83.20;;;;;;5033346;28;20030;-72
2022/07/07 05:45:50;;;;;;;0.28;0.28;;;17.20;84.20;;;;;;5032068;28;20053;-72
2022/07/07 05:48:16;;;;;;;0.40;0.40;;;17.20;84.30;;;;;;5018085;28;20056;-72
2022/07/07 05:50:42;;;;;;;0.10;0.10;;;17.40;83.40;;;;;;5034650;28;20030;-72
2022/07/07 05:53:07;;;;;;;0.10;0.10;;;17.50;83.40;;;;;;5027147;28;20033;-72
2022/07/07 05:55:33;;;;;;;0.10;0.10;;;17.80;82.70;;;;;;5013563;28;20026;-72
2022/07/07 05:57:59;;;;;;;0.20;0.20;;;17.80;82.00;;;;;;5016176;28;20930;-72
2022/07/07 06:00:25;;;;;;;0.17;0.17;;;17.80;80.20;;;;;;5013703;28;20022;-72
2022/07/07 06:02:52;;;;;;;0.10;0.10;;;17.70;78.50;;;;;;5017990;28;20381;-72
2022/07/07 06:05:18;;;;;;;0.77;0.40;;;17.80;79.80;;;;;;5034376;28;20029;-72
2022/07/07 06:07:44;;;;;;;1.08;0.52;;;17.80;79.10;;;;;;5032120;28;20029;-72
2022/07/07 06:10:15;;;;;;;0.60;0.40;;;17.90;78.50;;;;;;4980583;28;20445;-72
2022/07/07 06:12:42;;;;;;;0.10;0.10;;;17.70;80.00;;;;;;4994629;28;20494;-72
2022/07/07 06:15:09;;;;;;;0.10;0.10;;;17.60;81.30;;;;;;5014266;28;20026;-72
2022/07/07 06:17:35;;;;;;;0.10;0.10;;;17.50;81.60;;;;;;5011253;28;20026;-71
2022/07/07 06:20:01;;;;;;;0.20;0.20;;;17.60;82.30;;;;;;5012924;28;20402;-72
2022/07/07 06:22:28;;;;;;;0.85;0.85;;;17.60;82.90;;;;;;5009904;28;20482;-71
2022/07/07 06:24:54;;;;;;;0.20;0.20;;;17.50;82.70;;;;;;4994309;28;20018;-72
2022/07/07 06:27:20;;;;;;;0.10;0.10;;;17.40;83.50;;;;;;4994625;28;20541;-72
2022/07/07 06:29:46;;;;;;;0.00;0.00;;;17.60;83.90;;;;;;5028950;23;20062;-75
2022/07/07 06:32:15;;;;;;;0.28;0.28;;;17.70;83.50;;;;;;4993157;28;20026;-75
2022/07/07 06:34:42;;;;;;;0.45;0.45;;;17.50;83.40;;;;;;4992151;28;20466;-75
2022/07/07 06:37:08;;;;;;;1.48;1.38;;;17.40;83.70;;;;;;5005834;28;20018;-74
2022/07/07 06:39:34;;;;;;;0.55;0.55;;;17.20;84.50;;;;;;4997040;28;20018;-74
2022/07/07 06:41:59;;;;;;;0.40;0.40;;;17.20;84.30;;;;;;4991793;28;20076;-74
2022/07/07 06:44:30;;;;;;;0.20;0.20;;;17.10;85.50;;;;;;4992580;28;20109;-75
2022/07/07 06:46:58;;;;;;;1.40;1.00;;;17.20;84.60;;;;;;4993484;28;20180;-75
2022/07/07 06:49:25;;;;;;;0.38;0.38;;;17.20;85.20;;;;;;4993557;28;20488;-74
2022/07/07 06:51:51;;;;;;;0.50;0.50;;;17.10;86.20;;;;;;4993258;28;20022;-75
2022/07/07 06:54:17;;;;;;;0.10;0.10;;;17.10;85.30;;;;;;5002225;28;20388;-75
2022/07/07 06:56:43;;;;;;;0.15;0.15;;;17.30;85.00;;;;;;5014052;28;20026;-75
2022/07/07 06:59:08;;;;;;;0.20;0.20;;;17.40;84.40;;;;;;5011802;28;20389;-74
2022/07/07 07:01:34;;;;;;;0.00;0.00;;;17.60;83.70;;;;;;5010473;28;20359;-76
2022/07/07 07:04:00;;;;;;;0.00;0.00;;;17.60;83.70;;;;;;4971495;28;20564;-77
2022/07/07 07:06:28;;;;;;;0.00;0.00;;;17.60;86.60;;;;;;4970971;28;20131;-77
2022/07/07 07:08:58;;;;;;;2.90;0.50;;;17.80;84.40;;;;;;4972555;28;20447;-76
2022/07/07 07:11:25;;;;;;;0.20;0.20;;;17.80;82.70;;;;;;4970382;28;20034;-76
2022/07/07 07:13:51;;;;;;;0.10;0.10;;;17.80;82.30;;;;;;4970745;28;20122;-77
2022/07/07 07:16:18;;;;;;;0.60;0.60;;;17.80;81.60;;;;;;4972783;28;20051;-77
2022/07/07 07:18:44;;;;;;;0.43;0.43;;;17.90;81.20;;;;;;4972906;28;20046;-76
2022/07/07 07:21:11;;;;;;;0.47;0.47;;;18.00;81.70;;;;;;4953976;28;20153;-77
2022/07/07 07:23:37;;;;;;;0.10;0.10;;;18.10;81.30;;;;;;4972627;28;20029;-76
2022/07/07 07:26:07;;;;;;;0.25;0.22;;;18.00;81.30;;;;;;4974690;28;20033;-76
2022/07/07 07:28:33;;;;;;;0.57;0.57;;;17.90;81.10;;;;;;4971099;28;20038;-77
2022/07/07 07:31:00;;;;;;;0.20;0.20;;;17.80;80.60;;;;;;4972197;28;20043;-77
2022/07/07 07:33:26;;;;;;;0.20;0.20;;;17.60;81.80;;;;;;4972075;28;20038;-76
2022/07/07 07:35:52;;;;;;;0.38;0.38;;;17.70;82.00;;;;;;4969560;28;20027;-77
2022/07/07 07:38:18;;;;;;;0.32;0.32;;;17.60;81.80;;;;;;4969613;28;20382;-76
2022/07/07 07:40:44;;;;;;;0.10;0.10;;;17.60;82.60;;;;;;4953337;28;20037;-77
2022/07/07 07:43:09;;;;;;;0.22;0.22;;;17.80;81.60;;;;;;4972145;28;20045;-77
2022/07/07 07:45:36;;;;;;;0.10;0.10;;;18.20;80.80;;;;;;4971773;28;20041;-77
2022/07/07 07:48:03;;;;;;;0.30;0.30;;;18.10;80.70;;;;;;4970095;28;20037;-76
2022/07/07 07:50:29;;;;;;;0.40;0.40;;;18.20;79.90;;;;;;4968725;28;20065;-76
2022/07/07 07:52:56;;;;;;;0.03;0.03;;;18.40;79.80;;;;;;4970716;28;20370;-77
2022/07/07 07:55:22;;;;;;;0.20;0.20;;;18.60;79.10;;;;;;4968108;28;20035;-76
2022/07/07 07:57:48;;;;;;;0.10;0.10;;;18.50;78.30;;;;;;4970657;28;20036;-76
2022/07/07 08:00:17;;;;;;;0.32;0.22;;;18.40;78.70;;;;;;4971389;28;20026;-76
2022/07/07 08:02:43;;;;;;;0.10;0.10;;;18.50;79.90;;;;;;4971787;28;20066;-76
2022/07/07 08:05:12;;;;;;;1.02;1.02;;;18.70;78.70;;;;;;4969397;28;20035;-76
2022/07/07 08:07:40;;;;;;;0.10;0.10;;;18.80;79.00;;;;;;4970741;28;20069;-77
2022/07/07 08:10:08;;;;;;;0.65;0.65;;;18.50;77.10;;;;;;4973275;28;20053;-77
2022/07/07 08:12:34;;;;;;;0.10;0.10;;;18.30;77.70;;;;;;4970880;28;20042;-76
2022/07/07 08:15:00;;;;;;;0.10;0.10;;;18.00;79.80;;;;;;4969220;28;20130;-77
2022/07/07 08:17:26;;;;;;;0.22;0.22;;;17.90;80.70;;;;;;4971311;28;20089;-76
2022/07/07 08:19:52;;;;;;;0.10;0.10;;;18.00;79.80;;;;;;4970412;28;20486;-76
2022/07/07 08:22:17;;;;;;;0.43;0.43;;;18.20;80.40;;;;;;4968969;28;20440;-77
2022/07/07 08:24:43;;;;;;;0.10;0.10;;;18.20;79.70;;;;;;4973445;28;20486;-77
2022/07/07 08:27:09;;;;;;;1.13;0.15;;;18.40;80.10;;;;;;4968722;28;20536;-76
2022/07/07 08:29:38;;;;;;;0.08;0.08;;;18.50;79.10;;;;;;4954324;28;20386;-77
2022/07/07 08:32:16;;;;;;;0.40;0.40;;;18.70;78.20;;;;;;4971992;28;20465;-77
2022/07/07 08:34:42;;;;;;;0.10;0.10;;;18.50;77.10;;;;;;4953828;28;20034;-76
2022/07/07 08:37:08;;;;;;;0.10;0.10;;;18.30;78.90;;;;;;4972478;28;20367;-77
2022/07/07 08:39:34;;;;;;;0.10;0.10;;;18.40;78.70;;;;;;4968851;28;20035;-77
2022/07/07 08:42:00;;;;;;;0.32;0.32;;;18.30;79.00;;;;;;4970719;28;20037;-77
2022/07/07 08:44:26;;;;;;;2.08;1.00;;;18.00;78.20;;;;;;4970904;28;20069;-77
2022/07/07 08:46:53;;;;;;;0.40;0.40;;;18.10;78.20;;;;;;4968929;28;20084;-76
2022/07/07 08:49:19;;;;;;;1.52;0.45;;;18.10;78.80;;;;;;4969634;28;20404;-76
2022/07/07 08:51:46;;;;;;;0.10;0.10;;;18.10;77.40;;;;;;4968838;28;20037;-77
2022/07/07 08:54:15;;;;;;;0.25;0.20;;;18.10;78.10;;;;;;4969815;28;20046;-77
2022/07/07 08:56:43;;;;;;;0.10;0.10;;;18.30;77.60;;;;;;4970611;28;20907;-77
2022/07/07 08:59:13;;;;;;;0.52;0.52;;;18.50;77.70;;;;;;4969734;28;20030;-76
2022/07/07 09:01:39;;;;;;;0.17;0.17;;;18.40;77.30;;;;;;4969423;28;20173;-77
2022/07/07 09:04:06;;;;;;;0.10;0.10;;;18.80;77.90;;;;;;4970176;28;20443;-77
2022/07/07 09:06:33;;;;;;;0.10;0.10;;;19.00;77.20;;;;;;4970145;28;20658;-78
2022/07/07 09:09:01;;;;;;;0.20;0.10;;;19.10;76.00;;;;;;4972942;28;20039;-78
2022/07/07 09:11:29;;;;;;;0.70;0.30;;;19.00;76.90;;;;;;4955301;28;20517;-77
2022/07/07 09:14:16;;;;;;;0.10;0.10;;;19.10;76.80;;;;;;4976623;28;20112;-77
2022/07/07 09:16:43;;;;;;;0.10;0.10;;;19.10;76.50;;;;;;4971925;28;20015;-78
2022/07/07 09:19:19;;;;;;;0.10;0.10;;;19.20;75.40;;;;;;4974689;28;20480;-77
2022/07/07 09:21:46;;;;;;;0.10;0.10;;;19.20;75.30;;;;;;4976828;28;20038;-77
2022/07/07 09:24:12;;;;;;;0.90;0.52;;;19.40;75.50;;;;;;4971284;28;20058;-78
2022/07/07 09:26:41;;;;;;;1.02;0.98;;;19.70;74.80;;;;;;4957659;28;20077;-78
2022/07/07 09:29:15;;;;;;;4.38;0.47;;;19.70;74.60;;;;;;4974174;28;20521;-78
2022/07/07 09:31:57;;;;;;;0.65;0.65;;;20.20;72.50;;;;;;4973771;28;20033;-77
2022/07/07 09:34:29;;;;;;;0.10;0.10;;;20.70;70.80;;;;;;4972759;28;20141;-77
2022/07/07 09:39:47;;;;;;;0.20;0.20;;;20.70;70.30;;;;;;4971919;28;20407;-78
2022/07/07 09:42:20;;;;;;;0.50;0.43;;;20.40;71.30;;;;;;4972900;28;20014;-77
2022/07/07 09:44:51;;;;;;;0.03;0.03;;;20.30;71.60;;;;;;4959948;28;20126;-78
2022/07/07 09:47:22;;;;;;;0.10;0.10;;;20.60;71.50;;;;;;4957810;28;20031;-78
2022/07/07 09:49:59;;;;;;;0.10;0.10;;;20.40;71.60;;;;;;4975048;28;20027;-78
2022/07/07 09:52:26;;;;;;;3.90;0.28;;;20.10;73.00;;;;;;4974594;28;20097;-77
2022/07/07 09:54:52;;;;;;;0.00;0.00;;;20.30;73.80;;;;;;4974891;28;20152;-78
2022/07/07 09:57:19;;;;;;;25.73;13.90;;;20.50;73.00;;;;;;4975133;28;20030;-78
2022/07/07 09:59:45;;;;;;;0.15;0.13;;;20.40;72.30;;;;;;4975787;28;20050;-77
2022/07/07 10:02:23;;;;;;;0.10;0.10;;;19.90;73.30;;;;;;4976331;28;20041;-75
2022/07/07 10:04:52;;;;;;;0.82;0.82;;;19.60;77.70;;;;;;4973349;28;20076;-75
2022/07/07 10:07:21;;;;;;;0.45;0.45;;;19.20;81.70;;;;;;4972632;28;20045;-75
2022/07/07 10:09:55;;;;;;;0.40;0.40;;;19.20;85.90;;;;;;4974805;28;20073;-76
2022/07/07 10:12:23;;;;;;;0.38;0.38;;;19.20;85.00;;;;;;4972383;28;20945;-75
2022/07/07 10:14:54;;;;;;;0.77;0.75;;;19.10;88.10;;;;;;4976332;28;20101;-74
2022/07/07 10:17:21;;;;;;;0.10;0.10;;;19.00;89.10;;;;;;4974816;28;20022;-75
2022/07/07 10:19:47;;;;;;;0.10;0.10;;;19.10;90.50;;;;;;4973176;28;20031;-74
2022/07/07 10:22:14;;;;;;;0.00;0.00;;;19.20;91.60;;;;;;4971869;28;20398;-75
2022/07/07 10:24:43;;;;;;;0.20;0.20;;;19.40;91.50;;;;;;4973100;28;20078;-75
2022/07/07 10:27:14;;;;;;;0.20;0.20;;;19.40;90.00;;;;;;4974372;28;20525;-75
2022/07/07 10:29:43;;;;;;;0.10;0.10;;;19.30;88.70;;;;;;4974006;28;20053;-75
2022/07/07 10:32:14;;;;;;;0.35;0.35;;;19.30;90.50;;;;;;4971984;28;20042;-76
2022/07/07 10:34:50;;;;;;;0.10;0.10;;;19.20;90.30;;;;;;4972120;28;20042;-75
2022/07/07 10:37:16;;;;;;;0.45;0.30;;;19.30;88.90;;;;;;4972232;28;20044;-74
2022/07/07 10:39:45;;;;;;;0.10;0.10;;;19.50;88.80;;;;;;4971235;28;20402;-74
2022/07/07 10:42:16;;;;;;;0.10;0.10;;;19.50;86.30;;;;;;4972253;28;20046;-75
2022/07/07 10:44:44;;;;;;;0.10;0.10;;;19.30;86.70;;;;;;4973886;28;20037;-75
2022/07/07 10:47:16;;;;;;;0.22;0.22;;;19.40;86.30;;;;;;4972351;28;20057;-75
2022/07/07 10:49:51;;;;;;;0.43;0.43;;;19.40;85.60;;;;;;4972113;28;20069;-74
2022/07/07 10:52:22;;;;;;;0.10;0.10;;;19.40;89.00;;;;;;4969719;28;20037;-76
2022/07/07 10:55:00;;;;;;;0.93;0.73;;;19.30;90.10;;;;;;4973305;28;20038;-76
2022/07/07 10:57:29;;;;;;;0.10;0.10;;;19.20;92.00;;;;;;4973233;28;20058;-74
2022/07/07 10:59:59;;;;;;;0.22;0.22;;;19.10;91.90;;;;;;4971933;28;20027;-75
2022/07/07 11:02:56;;;;;;;0.32;0.32;;;19.00;91.10;;;;;;4972405;28;20027;-74
2022/07/07 11:05:29;;;;;;;0.25;0.25;;;18.90;90.20;;;;;;4960269;28;20035;-76
2022/07/07 11:08:03;;;;;;;0.10;0.10;;;18.90;89.60;;;;;;4973565;28;20042;-76
2022/07/07 11:10:37;;;;;;;0.10;0.10;;;18.90;90.70;;;;;;4972821;28;20030;-73
2022/07/07 11:13:16;;;;;;;0.10;0.10;;;19.10;90.30;;;;;;4956368;28;20513;-75
2022/07/07 11:15:43;;;;;;;0.10;0.10;;;19.50;90.00;;;;;;4972591;28;20033;-76
2022/07/07 11:18:12;;;;;;;0.70;0.70;;;19.60;87.40;;;;;;4972092;28;20474;-75
2022/07/07 11:20:54;;;;;;;1.15;0.75;;;19.50;84.60;;;;;;4971681;28;20121;-73
2022/07/07 11:23:21;;;;;;;0.03;0.03;;;19.70;85.30;;;;;;4955740;28;20038;-73
2022/07/07 11:25:47;;;;;;;0.25;0.25;;;20.20;84.70;;;;;;4971321;28;20080;-75
2022/07/07 11:28:13;;;;;;;0.65;0.52;;;20.60;83.10;;;;;;4972549;28;20049;-75
2022/07/07 11:30:40;;;;;;;0.47;0.40;;;20.80;79.60;;;;;;4970537;28;20066;-76
2022/07/07 11:33:07;;;;;;;0.05;0.05;;;20.80;78.80;;;;;;4954360;28;20113;-75
2022/07/07 11:35:40;;;;;;;0.38;0.10;;;20.90;79.20;;;;;;4970926;28;20029;-75
2022/07/07 11:38:08;;;;;;;0.05;0.05;;;21.20;79.00;;;;;;4971932;28;20450;-75
2022/07/07 11:40:37;;;;;;;0.00;0.00;;;21.50;75.50;;;;;;4972699;28;20406;-74
2022/07/07 11:43:05;;;;;;;0.63;0.20;;;21.30;74.90;;;;;;4970144;28;20129;-76
2022/07/07 11:45:31;;;;;;;1.17;0.30;;;21.50;76.70;;;;;;4971642;28;20034;-75
2022/07/07 11:48:03;;;;;;;0.00;0.00;;;21.20;73.80;;;;;;4969441;28;20054;-76
2022/07/07 11:50:33;;;;;;;0.47;0.47;;;21.30;72.20;;;;;;4970221;28;20043;-74
2022/07/07 11:53:01;;;;;;;0.10;0.10;;;20.90;71.80;;;;;;4971695;28;20167;-74
2022/07/07 11:55:29;;;;;;;0.00;0.00;;;21.00;72.90;;;;;;4971798;28;20124;-75
2022/07/07 11:57:56;;;;;;;0.40;0.40;;;21.10;69.90;;;;;;4969801;28;20042;-75
2022/07/07 12:00:25;;;;;;;0.43;0.38;;;21.10;69.20;;;;;;4972245;28;20506;-76
2022/07/07 12:02:53;;;;;;;0.10;0.10;;;21.00;69.30;;;;;;4972515;28;20495;-75
2022/07/07 12:05:26;;;;;;;0.38;0.38;;;21.10;74.80;;;;;;4972100;28;20038;-75
2022/07/07 12:07:54;;;;;;;0.30;0.30;;;20.70;74.20;;;;;;4971951;28;20165;-74
2022/07/07 12:10:24;;;;;;;0.20;0.20;;;20.50;74.70;;;;;;4971829;28;20640;-75
2022/07/07 12:13:03;;;;;;;0.80;0.55;;;20.40;73.90;;;;;;4972265;28;20034;-76
2022/07/07 12:15:32;;;;;;;0.20;0.20;;;20.10;74.90;;;;;;4971138;28;20041;-76
2022/07/07 12:17:57;;;;;;;5.47;4.07;;;20.20;75.70;;;;;;4972228;28;20027;-76
2022/07/07 12:20:24;;;;;;;0.57;0.45;;;20.00;81.00;;;;;;4972159;28;20586;-74
2022/07/07 12:22:58;;;;;;;0.20;0.20;;;20.20;79.90;;;;;;4970933;28;20045;-76
2022/07/07 12:25:29;;;;;;;23.38;0.65;;;20.20;78.30;;;;;;4971596;28;20038;-76
2022/07/07 12:28:00;;;;;;;1.25;0.38;;;20.10;76.20;;;;;;4955096;28;20498;-75
2022/07/07 12:30:31;;;;;;;0.17;0.17;;;20.30;75.60;;;;;;4972327;28;20077;-75
2022/07/07 12:32:58;;;;;;;0.20;0.20;;;20.50;74.60;;;;;;4955761;28;20031;-75
2022/07/07 12:35:33;;;;;;;0.00;0.00;;;20.40;74.80;;;;;;4970144;28;20031;-74
2022/07/07 12:38:05;;;;;;;0.10;0.10;;;20.40;74.70;;;;;;4971106;28;20034;-76
2022/07/07 12:40:32;;;;;;;;;;;20.60;75.40;;;;;;4971936;28;20094;-76
2022/07/07 12:43:04;;;;;;;0.10;0.10;;;20.80;74.50;;;;;;4974797;28;19921;-78
2022/07/07 12:45:31;;;;;;;0.10;0.10;;;20.80;75.00;;;;;;4979667;28;20038;-78
2022/07/07 12:47:57;;;;;;;0.05;0.05;;;20.80;75.30;;;;;;4980211;28;20026;-78
2022/07/07 12:50:28;;;;;;;0.68;0.55;;;20.50;79.50;;;;;;4981287;28;20482;-78
2022/07/07 12:53:07;;;;;;;0.00;0.00;;;20.50;80.50;;;;;;4983976;28;20035;-78